Terminal Aerodrome Forecast
Issued by NWS Northern Indiana

Home | Current Version | Previous Version | Text Only | Print | Product List | Glossary Off
Versions: 1 2 3 4 5 6 7 8 9 10 11 12 13 14 15 16 17

000
FTUS43 KIWX 020539
TAFFWA
TAF
KFWA 020539Z 0206/0306 22008KT P6SM SCT070
     FM021500 24015G23KT P6SM SCT120
     FM021900 23018G26KT P6SM SCT250
     FM030000 21012KT P6SM BKN200=

USA.gov is the U.S. government's official web portal to all federal, state and local government web resources and services.